createdAt,value
2022-11-03T00:01:41.812Z,15.05
2022-11-03T00:06:48.841Z,13.70
2022-11-03T00:11:52.085Z,13.78
2022-11-03T00:16:55.057Z,15.91
2022-11-03T00:21:59.433Z,16.29
2022-11-03T00:27:02.282Z,14.66
2022-11-03T00:32:05.697Z,13.54
2022-11-03T00:37:08.580Z,12.81
2022-11-03T00:42:11.418Z,13.26
2022-11-03T00:47:14.314Z,15.60
2022-11-03T00:52:17.201Z,16.05
2022-11-03T00:57:20.093Z,14.42
2022-11-03T01:02:22.964Z,13.32
2022-11-03T01:07:25.892Z,12.55
2022-11-03T01:12:28.769Z,12.98
2022-11-03T01:17:31.610Z,15.32
2022-11-03T01:22:34.490Z,15.72
2022-11-03T01:27:37.371Z,14.06
2022-11-03T01:32:40.246Z,12.96
2022-11-03T01:37:43.056Z,12.24
2022-11-03T01:42:45.932Z,12.65
2022-11-03T01:47:48.936Z,15.06
2022-11-03T01:52:58.685Z,15.36
2022-11-03T01:58:08.407Z,13.63
2022-11-03T02:03:12.457Z,12.55
2022-11-03T02:08:28.665Z,11.88
2022-11-03T02:13:31.557Z,13.47
2022-11-03T02:18:35.055Z,15.40
2022-11-03T02:24:41.392Z,14.24
2022-11-03T02:29:44.678Z,12.63
2022-11-03T02:35:15.673Z,11.82
2022-11-03T02:40:27.892Z,12.49
2022-11-03T02:45:31.587Z,15.03
2022-11-03T02:50:34.933Z,14.87
2022-11-03T02:55:39.230Z,13.28
2022-11-03T03:01:26.904Z,12.38
2022-11-03T03:06:43.985Z,11.73
2022-11-03T03:11:49.038Z,11.27
2022-11-03T03:17:07.181Z,11.90
2022-11-03T03:22:47.802Z,14.68
2022-11-03T03:27:58.625Z,15.02
2022-11-03T03:33:05.498Z,13.34
2022-11-03T03:38:16.808Z,12.34
2022-11-03T03:43:22.210Z,11.72
2022-11-03T03:48:25.188Z,11.29
2022-11-03T03:53:30.369Z,10.92
2022-11-03T03:58:33.351Z,11.59
2022-11-03T04:03:36.207Z,14.26
2022-11-03T04:08:39.131Z,14.85
2022-11-03T04:14:00.831Z,13.24
2022-11-03T04:19:22.306Z,12.16
2022-11-03T04:24:26.024Z,11.47
2022-11-03T04:29:29.358Z,10.94
2022-11-03T04:34:32.063Z,10.49
2022-11-03T04:39:34.996Z,10.29
2022-11-03T04:44:38.012Z,12.56
2022-11-03T04:49:41.291Z,14.59
2022-11-03T04:54:45.029Z,14.06
2022-11-03T04:59:49.590Z,12.48
2022-11-03T05:04:52.490Z,11.56
2022-11-03T05:09:55.618Z,10.97
2022-11-03T05:14:58.819Z,10.49
2022-11-03T05:20:03.711Z,11.03
2022-11-03T05:25:38.295Z,13.66
2022-11-03T05:30:41.222Z,14.16
2022-11-03T05:35:44.077Z,12.61
2022-11-03T05:40:50.655Z,11.69
2022-11-03T05:45:58.355Z,11.07
2022-11-03T05:51:10.815Z,10.63
2022-11-03T05:56:20.578Z,10.26
2022-11-03T06:01:30.550Z,11.03
2022-11-03T06:06:37.905Z,13.78
2022-11-03T06:11:41.708Z,14.33
2022-11-03T06:16:49.596Z,12.71
2022-11-03T06:21:55.685Z,11.74
2022-11-03T06:26:58.839Z,11.16
2022-11-03T06:32:02.203Z,10.75
2022-11-03T06:37:31.768Z,10.44
2022-11-03T06:42:34.633Z,11.49
2022-11-03T06:47:40.622Z,14.20
2022-11-03T06:58:02.972Z,13.39
2022-11-03T07:03:33.320Z,12.42
2022-11-03T07:08:47.902Z,11.77
2022-11-03T07:13:55.600Z,11.33
2022-11-03T07:19:26.207Z,11.95
2022-11-03T07:24:41.268Z,14.75
2022-11-03T07:29:46.039Z,15.25
2022-11-03T07:34:51.387Z,13.65
2022-11-03T07:39:54.288Z,12.71
2022-11-03T07:44:57.116Z,12.17
2022-11-03T07:50:00.021Z,11.75
2022-11-03T07:55:11.304Z,12.36
2022-11-03T08:00:22.612Z,15.03
2022-11-03T08:05:25.417Z,15.56
2022-11-03T08:10:28.243Z,14.03
2022-11-03T08:15:31.064Z,13.12
2022-11-03T08:20:33.885Z,12.55
2022-11-03T08:25:36.727Z,12.13
2022-11-03T08:30:39.663Z,12.72
2022-11-03T08:35:42.563Z,15.37
2022-11-03T08:40:45.509Z,16.00
2022-11-03T08:45:53.532Z,14.47
2022-11-03T08:50:56.564Z,13.51
2022-11-03T08:55:59.464Z,12.95
2022-11-03T09:01:02.638Z,12.58
2022-11-03T09:06:06.160Z,12.27
2022-11-03T09:11:09.027Z,12.04
2022-11-03T09:16:11.885Z,11.92
2022-11-03T09:21:15.024Z,12.81
2022-11-03T09:26:18.104Z,15.59
2022-11-03T09:31:21.060Z,15.98
2022-11-03T09:36:23.958Z,14.56
2022-11-03T09:41:45.843Z,13.79
2022-11-03T09:46:55.430Z,13.30
2022-11-03T09:52:03.401Z,12.95
2022-11-03T09:57:12.688Z,12.73
2022-11-03T10:02:32.085Z,12.57
2022-11-03T10:07:35.089Z,12.48
2022-11-03T10:12:38.310Z,14.41
2022-11-03T10:17:42.572Z,16.00
2022-11-03T10:22:47.353Z,14.80
2022-11-03T10:27:50.205Z,14.03
2022-11-03T10:32:53.056Z,13.62
2022-11-03T10:37:55.919Z,13.37
2022-11-03T10:43:00.014Z,13.19
2022-11-03T10:48:09.221Z,13.04
2022-11-03T10:53:20.464Z,12.93
2022-11-03T10:58:23.835Z,12.83
2022-11-03T11:03:26.824Z,12.78
2022-11-03T11:08:30.056Z,12.75
2022-11-03T11:13:33.006Z,12.72
2022-11-03T11:18:40.415Z,12.72
2022-11-03T11:23:45.927Z,12.73
2022-11-03T11:29:11.123Z,12.73
2022-11-03T11:34:17.450Z,12.75
2022-11-03T11:39:20.331Z,12.76
2022-11-03T11:44:48.038Z,12.77
2022-11-03T11:50:14.938Z,12.78
2022-11-03T11:55:32.272Z,12.79
2022-11-03T12:00:35.524Z,12.78
2022-11-03T12:05:38.431Z,12.76
2022-11-03T12:10:52.721Z,12.75
2022-11-03T12:15:58.758Z,12.79
2022-11-03T12:21:04.954Z,12.82
2022-11-03T12:26:34.228Z,12.86
2022-11-03T12:31:37.237Z,12.90
2022-11-03T12:36:40.158Z,12.93
2022-11-03T12:41:43.240Z,12.97
2022-11-03T12:46:46.120Z,13.00
2022-11-03T12:51:49.006Z,13.03
2022-11-03T12:56:53.291Z,13.04
2022-11-03T13:01:56.322Z,13.05
2022-11-03T13:06:59.557Z,13.03
2022-11-03T13:12:21.048Z,13.02
2022-11-03T13:17:24.165Z,13.00
2022-11-03T13:22:27.051Z,12.97
2022-11-03T13:27:29.916Z,12.94
2022-11-03T13:32:33.045Z,12.87
2022-11-03T13:37:35.899Z,12.83
2022-11-03T13:42:39.282Z,12.79
2022-11-03T13:48:47.436Z,12.76
2022-11-03T14:09:13.635Z,12.57
2022-11-03T14:14:16.560Z,12.52
2022-11-03T14:19:19.608Z,12.45
2022-11-03T14:24:22.454Z,12.39
2022-11-03T14:29:25.363Z,12.32
2022-11-03T14:34:28.286Z,12.26
2022-11-03T14:39:31.564Z,12.20
2022-11-03T14:44:38.407Z,12.13
2022-11-03T14:49:41.431Z,12.06
2022-11-03T14:54:44.679Z,11.98
2022-11-03T14:59:52.205Z,11.90
2022-11-03T15:04:56.382Z,11.83
2022-11-03T15:09:59.243Z,11.75
2022-11-03T15:15:02.107Z,11.68
2022-11-03T15:20:05.701Z,11.60
2022-11-03T15:30:12.607Z,11.43
2022-11-03T15:35:15.755Z,12.24
2022-11-03T15:40:18.589Z,15.01
2022-11-03T15:45:21.420Z,15.72
2022-11-03T15:50:25.800Z,14.38
2022-11-03T15:55:28.679Z,13.57
2022-11-03T16:00:31.717Z,13.04
2022-11-03T16:05:34.540Z,12.61
2022-11-03T16:10:37.456Z,12.21
2022-11-03T16:15:40.312Z,11.85
2022-11-03T16:20:43.138Z,11.54
2022-11-03T16:25:46.015Z,11.26
2022-11-03T16:30:54.039Z,11.07
2022-11-03T16:35:57.357Z,10.90
2022-11-03T16:41:00.200Z,10.75
2022-11-03T16:46:03.132Z,10.63
2022-11-03T16:51:06.277Z,11.42
2022-11-03T16:56:09.218Z,13.99
2022-11-03T17:01:12.378Z,14.73
2022-11-03T17:06:15.360Z,13.39
2022-11-03T17:11:36.094Z,12.55
2022-11-03T17:16:42.554Z,12.01
2022-11-03T17:21:45.490Z,11.59
2022-11-03T17:26:57.503Z,11.26
2022-11-03T17:32:01.770Z,10.95
2022-11-03T17:37:04.669Z,10.69
2022-11-03T17:42:26.622Z,10.48
2022-11-03T17:47:31.704Z,10.29
2022-11-03T17:52:36.763Z,10.14
2022-11-03T17:57:39.626Z,10.01
2022-11-03T18:02:42.651Z,10.76
2022-11-03T18:07:45.596Z,13.46
2022-11-03T18:13:09.852Z,14.22
2022-11-03T18:18:16.528Z,12.67
2022-11-03T18:23:46.939Z,11.80
2022-11-03T18:28:50.615Z,11.18
2022-11-03T18:33:53.738Z,10.75
2022-11-03T18:38:57.587Z,10.41
2022-11-03T18:44:01.143Z,10.12
2022-11-03T18:49:04.050Z,9.87
2022-11-03T18:54:13.948Z,9.65
2022-11-03T18:59:32.001Z,9.46
2022-11-03T19:04:36.562Z,9.30
2022-11-03T19:09:40.382Z,9.17
2022-11-03T19:14:45.400Z,9.05
2022-11-03T19:19:48.249Z,9.97
2022-11-03T19:24:51.161Z,12.86
2022-11-03T19:29:55.930Z,13.57
2022-11-03T19:35:02.102Z,12.11
2022-11-03T19:40:09.027Z,11.22
2022-11-03T19:45:19.397Z,10.67
2022-11-03T19:50:29.700Z,10.23
2022-11-03T19:55:42.195Z,9.89
2022-11-03T20:00:45.974Z,9.60
2022-11-03T20:05:56.550Z,9.37
2022-11-03T20:10:59.599Z,9.17
2022-11-03T20:16:03.331Z,9.01
2022-11-03T20:21:06.348Z,8.86
2022-11-03T20:26:18.250Z,8.73
2022-11-03T20:31:22.216Z,9.71
2022-11-03T20:36:25.109Z,12.52
2022-11-03T20:41:30.245Z,14.05
2022-11-03T20:46:34.263Z,14.15
2022-11-03T20:51:44.164Z,12.38
2022-11-03T20:56:48.681Z,11.30
2022-11-03T21:01:52.383Z,10.67
2022-11-03T21:06:55.568Z,10.17
2022-11-03T21:11:58.420Z,9.72
2022-11-03T21:17:20.148Z,9.38
2022-11-03T21:27:56.745Z,10.09
2022-11-03T21:32:59.643Z,12.78
2022-11-03T21:38:02.583Z,13.29
2022-11-03T21:43:23.958Z,11.73
2022-11-03T21:48:45.162Z,10.74
2022-11-03T21:53:48.330Z,10.12
2022-11-03T21:58:51.204Z,9.68
2022-11-03T22:03:56.499Z,9.30
2022-11-03T22:08:59.358Z,8.97
2022-11-03T22:14:02.420Z,8.71
2022-11-03T22:19:40.527Z,8.50
2022-11-03T22:25:02.350Z,9.67
2022-11-03T22:30:24.768Z,12.62
2022-11-03T22:35:46.174Z,13.16
2022-11-03T22:41:07.807Z,11.57
2022-11-03T22:46:12.253Z,10.66
2022-11-03T22:51:16.800Z,10.11
2022-11-03T22:56:22.928Z,9.68
2022-11-03T23:01:30.147Z,9.30
2022-11-03T23:06:40.592Z,8.97
2022-11-03T23:11:43.682Z,8.70
2022-11-03T23:16:46.623Z,8.49
2022-11-03T23:21:52.295Z,9.36
2022-11-03T23:26:55.392Z,12.17
2022-11-03T23:32:00.045Z,13.71
2022-11-03T23:37:03.315Z,13.30
2022-11-03T23:42:06.529Z,11.71
2022-11-03T23:47:27.817Z,10.82
2022-11-03T23:52:30.686Z,10.18
2022-11-03T23:57:51.942Z,9.67
